Terminal Aerodrome Forecast
Issued by NWS

Home | Current Version | Previous Version | Text Only | Print | Product List | Glossary On
Versions: 1 2 3 4 5 6 7 8 9 10 11 12 13 14
000
FTUS44 KLZK 290700 AAA
TAFHRO
TAF AMD
KHRO 290725Z 2907/3006 24012G25KT P6SM OVC250 WS020/28035KT
     FM291000 28010G20KT P6SM SCT015 SCT250 WS020/31035KT
     FM291500 32010G20KT P6SM OVC015
     FM291900 34011KT P6SM BKN025
     FM300300 32006KT P6SM SCT025=

USA.gov is the U.S. government's official web portal to all federal, state and local government web resources and services.